Faust — SLKQ — position and weather

sailwx.info

Track history (hours):
 
Tides and Currents Weather Stations Pressure Air Temp Water Temp Dewpoint Dewpoint Depression Visibility Wind Speed Wind Dir Waves Ship Positions

Faust

Last reported at 2016-Aug-29 06:33 UTC. Time now 2016-Aug-29 07:15 UTC.
Position N 38°08' W 009°41'.

Length 227.8 m; beam 32.3 m; draft 9.5 m.

Type: Cargo ship. MMSI: 266260000.

Date/timePositionNaut miles runAvg speedWind from/ knotsBaromVisibWave heightAir tempDewpointWater temp
2016-Aug-29 06:33N 38°08' W 009°41'1615.6
2016-Aug-29 05:33N 37°52' W 009°36'1615.8
2016-Aug-29 04:33N 37°37' W 009°32'1615.9
2016-Aug-29 03:33N 37°21' W 009°27'1615.9
2016-Aug-29 02:33N 37°06' W 009°23'1515.6
2016-Aug-29 01:33N 36°51' W 009°16'1515.2
2016-Aug-29 00:33N 36°43' W 009°01'1615.7
2016-Aug-28 23:33N 36°38' W 008°42'1615.9
2016-Aug-28 22:33N 36°33' W 008°23'1815.6
2016-Aug-28 21:24N 36°27' W 008°02'11016.0
2016-Aug-28 14:33N 35°58' W 005°51'1414.3
2016-Aug-28 13:33N 35°58' W 005°33'1616.0
2016-Aug-28 12:33N 36°02' W 005°14'1615.5
2016-Aug-28 11:33N 36°04' W 004°55'3215.3
2016-Aug-28 09:27N 36°10' W 004°16'1414.9
2016-Aug-28 08:32N 36°12' W 003°59'1515.6
2016-Aug-28 07:34N 36°15' W 003°40'1716.3
2016-Aug-28 06:31N 36°18' W 003°20'1716.4
2016-Aug-28 05:30N 36°19' W 002°59'1616.4
2016-Aug-28 04:33N 36°22' W 002°40'1716.9
2016-Aug-28 03:33N 36°25' W 002°19'1716.7
2016-Aug-28 02:33N 36°32' W 002°01'1716.6
2016-Aug-28 01:33N 36°43' W 001°45'2216.4
2016-Aug-28 00:14N 36°57' W 001°25'1116.6
2016-Aug-27 23:34N 37°05' W 001°15'1716.6
2016-Aug-27 22:31N 37°16' W 000°58'1616.4
2016-Aug-27 21:33N 37°27' W 000°44'1616.1
2016-Aug-27 20:34N 37°39' W 000°30'1716.1
2016-Aug-27 19:30N 37°53' W 000°19'1715.9
2016-Aug-27 18:27N 38°07' W 000°07'1416.0
2016-Aug-27 17:34N 38°19' E 000°03'1616.2
2016-Aug-27 16:33N 38°33' E 000°14'1615.5
2016-Aug-27 15:33N 38°46' E 000°24'4715.6
2016-Aug-27 12:32N 39°27' W 000°04'1313.0
2016-Aug-27 11:34N 39°38' W 000°13'0 0.4
2016-Aug-27 10:33N 39°38' W 000°13'0 0.0
2016-Aug-27 09:33N 39°38' W 000°13'0 0.0
2016-Aug-27 08:33N 39°38' W 000°13'0 0.0
2016-Aug-27 07:34N 39°38' W 000°13'0 0.0
2016-Aug-27 06:33N 39°38' W 000°13'0 0.2
2016-Aug-27 04:29N 39°38' W 000°13'8 8.8
2016-Aug-27 03:32N 39°35' W 000°02'3514.8
2016-Aug-27 01:10N 39°27' E 000°42'914.9
2016-Aug-27 00:33N 39°25' E 000°53'1515.0
2016-Aug-26 23:33N 39°21' E 001°12'1514.9
2016-Aug-26 22:33N 39°18' E 001°31'1514.9
2016-Aug-26 21:33N 39°14' E 001°49'1515.0
2016-Aug-26 20:33N 39°11' E 002°08'1515.2
2016-Aug-26 19:33N 39°07' E 002°27'1514.7
2016-Aug-26 18:33N 39°03' E 002°46'1514.5
2016-Aug-26 17:33N 38°59' E 003°04'1515.0
2016-Aug-26 16:33N 38°56' E 003°22'1615.2
2016-Aug-26 15:29N 38°52' E 003°43'5315.3
2016-Aug-26 12:03N 38°40' E 004°48'915.2
2016-Aug-26 11:29N 38°38' E 004°59'7515.2
2016-Aug-26 06:33N 38°20' E 006°32'9115.1
2016-Aug-26 00:29N 37°58' E 008°24'1715.3
2016-Aug-25 23:22N 37°54' E 008°45'1315.3
2016-Aug-25 22:33N 37°51' E 009°01'1615.4
2016-Aug-25 21:32N 37°47' E 009°20'1515.3
2016-Aug-25 20:32N 37°43' E 009°39'3215.0
2016-Aug-25 18:22N 37°38' E 010°19'5015.3
2016-Aug-25 15:04N 37°23' E 011°20'1215.2
2016-Aug-25 14:15N 37°20' E 011°35'1314.9
2016-Aug-25 13:23N 37°16' E 011°51'1214.6
2016-Aug-25 12:33N 37°13' E 012°05'2215.1
2016-Aug-25 11:04N 37°07' E 012°32'815.2
2016-Aug-25 10:32N 37°05' E 012°42'1515.2
2016-Aug-25 09:33N 37°01' E 013°00'1514.8
2016-Aug-25 08:33N 36°57' E 013°18'1615.8
2016-Aug-25 07:33N 36°52' E 013°37'1817.7
2016-Aug-25 06:33N 36°48' E 013°58'3216.2
2016-Aug-25 04:33N 36°38' E 014°36'67915.7
2016-Aug-23 09:13N 33°04' E 027°42'1015.1
2016-Aug-23 08:33N 33°01' E 027°53'15714.0
2016-Aug-22 21:20N 32°10' E 030°51'1415.1
2016-Aug-22 20:25N 32°05' E 031°06'7214.5
2016-Aug-22 15:26N 31°30' E 032°20'1211.8
2016-Aug-22 14:25N 31°18' E 032°22'9 8.9
2016-Aug-22 13:23N 31°09' E 032°19'8 8.9
2016-Aug-22 12:29N 31°01' E 032°19'65 7.8
2016-Aug-22 04:12N 29°58' E 032°35'7 1.0
2016-Aug-21 21:25N 29°51' E 032°35'0 0.0
2016-Aug-21 20:33N 29°51' E 032°35'2 2.3
2016-Aug-21 19:34N 29°49' E 032°33'1514.9
2016-Aug-21 18:33N 29°34' E 032°34'  
Track history (hours):
 
Tides and Currents Weather Stations Pressure Air Temp Water Temp Dewpoint Dewpoint Depression Visibility Wind Speed Wind Dir Waves Ship Positions

Faust

Last reported at 2016-Aug-29 06:33 UTC. Time now 2016-Aug-29 07:15 UTC.
Position N 38°08' W 009°41'.

Length 227.8 m; beam 32.3 m; draft 9.5 m.

Type: Cargo ship. MMSI: 266260000.

Date/timePositionNaut miles runAvg speedWind from/ knotsBaromVisibWave heightAir tempDewpointWater temp
2016-Aug-29 06:33N 38°08' W 009°41'1615.6
2016-Aug-29 05:33N 37°52' W 009°36'1615.8
2016-Aug-29 04:33N 37°37' W 009°32'1615.9
2016-Aug-29 03:33N 37°21' W 009°27'1615.9
2016-Aug-29 02:33N 37°06' W 009°23'1515.6
2016-Aug-29 01:33N 36°51' W 009°16'1515.2
2016-Aug-29 00:33N 36°43' W 009°01'1615.7
2016-Aug-28 23:33N 36°38' W 008°42'1615.9
2016-Aug-28 22:33N 36°33' W 008°23'1815.6
2016-Aug-28 21:24N 36°27' W 008°02'11016.0
2016-Aug-28 14:33N 35°58' W 005°51'1414.3
2016-Aug-28 13:33N 35°58' W 005°33'1616.0
2016-Aug-28 12:33N 36°02' W 005°14'1615.5
2016-Aug-28 11:33N 36°04' W 004°55'3215.3
2016-Aug-28 09:27N 36°10' W 004°16'1414.9
2016-Aug-28 08:32N 36°12' W 003°59'1515.6
2016-Aug-28 07:34N 36°15' W 003°40'1716.3
2016-Aug-28 06:31N 36°18' W 003°20'1716.4
2016-Aug-28 05:30N 36°19' W 002°59'1616.4
2016-Aug-28 04:33N 36°22' W 002°40'1716.9
2016-Aug-28 03:33N 36°25' W 002°19'1716.7
2016-Aug-28 02:33N 36°32' W 002°01'1716.6
2016-Aug-28 01:33N 36°43' W 001°45'2216.4
2016-Aug-28 00:14N 36°57' W 001°25'1116.6
2016-Aug-27 23:34N 37°05' W 001°15'1716.6
2016-Aug-27 22:31N 37°16' W 000°58'1616.4
2016-Aug-27 21:33N 37°27' W 000°44'1616.1
2016-Aug-27 20:34N 37°39' W 000°30'1716.1
2016-Aug-27 19:30N 37°53' W 000°19'1715.9
2016-Aug-27 18:27N 38°07' W 000°07'1416.0
2016-Aug-27 17:34N 38°19' E 000°03'1616.2
2016-Aug-27 16:33N 38°33' E 000°14'1615.5
2016-Aug-27 15:33N 38°46' E 000°24'4715.6
2016-Aug-27 12:32N 39°27' W 000°04'1313.0
2016-Aug-27 11:34N 39°38' W 000°13'0 0.4
2016-Aug-27 10:33N 39°38' W 000°13'0 0.0
2016-Aug-27 09:33N 39°38' W 000°13'0 0.0
2016-Aug-27 08:33N 39°38' W 000°13'0 0.0
2016-Aug-27 07:34N 39°38' W 000°13'0 0.0
2016-Aug-27 06:33N 39°38' W 000°13'0 0.2
2016-Aug-27 04:29N 39°38' W 000°13'8 8.8
2016-Aug-27 03:32N 39°35' W 000°02'3514.8
2016-Aug-27 01:10N 39°27' E 000°42'914.9
2016-Aug-27 00:33N 39°25' E 000°53'1515.0
2016-Aug-26 23:33N 39°21' E 001°12'1514.9
2016-Aug-26 22:33N 39°18' E 001°31'1514.9
2016-Aug-26 21:33N 39°14' E 001°49'1515.0
2016-Aug-26 20:33N 39°11' E 002°08'1515.2
2016-Aug-26 19:33N 39°07' E 002°27'1514.7
2016-Aug-26 18:33N 39°03' E 002°46'1514.5
2016-Aug-26 17:33N 38°59' E 003°04'1515.0
2016-Aug-26 16:33N 38°56' E 003°22'1615.2
2016-Aug-26 15:29N 38°52' E 003°43'5315.3
2016-Aug-26 12:03N 38°40' E 004°48'915.2
2016-Aug-26 11:29N 38°38' E 004°59'7515.2
2016-Aug-26 06:33N 38°20' E 006°32'9115.1
2016-Aug-26 00:29N 37°58' E 008°24'1715.3
2016-Aug-25 23:22N 37°54' E 008°45'1315.3
2016-Aug-25 22:33N 37°51' E 009°01'1615.4
2016-Aug-25 21:32N 37°47' E 009°20'1515.3
2016-Aug-25 20:32N 37°43' E 009°39'3215.0
2016-Aug-25 18:22N 37°38' E 010°19'5015.3
2016-Aug-25 15:04N 37°23' E 011°20'1215.2
2016-Aug-25 14:15N 37°20' E 011°35'1314.9
2016-Aug-25 13:23N 37°16' E 011°51'1214.6
2016-Aug-25 12:33N 37°13' E 012°05'2215.1
2016-Aug-25 11:04N 37°07' E 012°32'815.2
2016-Aug-25 10:32N 37°05' E 012°42'1515.2
2016-Aug-25 09:33N 37°01' E 013°00'1514.8
2016-Aug-25 08:33N 36°57' E 013°18'1615.8
2016-Aug-25 07:33N 36°52' E 013°37'1817.7
2016-Aug-25 06:33N 36°48' E 013°58'3216.2
2016-Aug-25 04:33N 36°38' E 014°36'67915.7
2016-Aug-23 09:13N 33°04' E 027°42'1015.1
2016-Aug-23 08:33N 33°01' E 027°53'15714.0
2016-Aug-22 21:20N 32°10' E 030°51'1415.1
2016-Aug-22 20:25N 32°05' E 031°06'7214.5
2016-Aug-22 15:26N 31°30' E 032°20'1211.8
2016-Aug-22 14:25N 31°18' E 032°22'9 8.9
2016-Aug-22 13:23N 31°09' E 032°19'8 8.9
2016-Aug-22 12:29N 31°01' E 032°19'65 7.8
2016-Aug-22 04:12N 29°58' E 032°35'7 1.0
2016-Aug-21 21:25N 29°51' E 032°35'0 0.0
2016-Aug-21 20:33N 29°51' E 032°35'2 2.3
2016-Aug-21 19:34N 29°49' E 032°33'1514.9
2016-Aug-21 18:33N 29°34' E 032°34'  

Dump ship's entire track history